OMPIP LZPP-LZNI

Flight info

Callsign OMPIP
Flight time 0h 14m
Altitude 2000
Route
Aircraft P28A

Departure

Time 2026-04-22 18:07
Airport Piešťany Airport (LZPP)

Arrival

Time 2026-04-22 18:21
Airport Nitra Airfield (LZNI)
Time Latitude Longitude Altitude Speed Heading
2026-04-22 18:02 48.61357 17.82947 526 ft 10 kts
2026-04-22 18:02 48.61432 17.82952 527 ft 10 kts
2026-04-22 18:02 48.61505 17.82962 528 ft 10 kts
2026-04-22 18:02 48.61579 17.82935 528 ft 12 kts 291°
2026-04-22 18:03 48.61602 17.82801 528 ft 13 kts 287°
2026-04-22 18:03 48.61627 17.82650 527 ft 10 kts 284°
2026-04-22 18:03 48.61628 17.82643 527 ft 0 kts 283°
2026-04-22 18:05 48.61660 17.82558 528 ft 10 kts 342°
2026-04-22 18:05 48.61702 17.82568 528 ft 2 kts 13°
2026-04-22 18:05 48.61897 17.82632 531 ft 55 kts 13°
2026-04-22 18:06 48.62296 17.82842 687 ft 57 kts 359°
2026-04-22 18:06 48.62670 17.82679 733 ft 56 kts 16°
2026-04-22 18:06 48.63021 17.83152 847 ft 76 kts 41°
2026-04-22 18:06 48.62947 17.84008 961 ft 107 kts 128°
2026-04-22 18:07 48.62448 17.84256 1004 ft 120 kts 182°
2026-04-22 18:07 48.61338 17.83802 1103 ft 126 kts 200°
2026-04-22 18:07 48.60488 17.83416 1193 ft 130 kts 187°
2026-04-22 18:07 48.59582 17.83360 1277 ft 130 kts 169°
2026-04-22 18:08 48.58666 17.83438 1285 ft 137 kts 176°
2026-04-22 18:08 48.57697 17.83347 1239 ft 143 kts 181°
2026-04-22 18:08 48.56716 17.83267 1293 ft 138 kts 180°
2026-04-22 18:08 48.55764 17.83143 1279 ft 142 kts 180°
2026-04-22 18:09 48.54772 17.83017 1311 ft 140 kts 181°
2026-04-22 18:09 48.53800 17.82843 1338 ft 140 kts 185°
2026-04-22 18:09 48.52826 17.82795 1375 ft 137 kts 173°
2026-04-22 18:09 48.51878 17.82739 1387 ft 137 kts 194°
2026-04-22 18:10 48.50907 17.82654 1314 ft 145 kts 178°
2026-04-22 18:10 48.49906 17.82768 1282 ft 146 kts 162°
2026-04-22 18:10 48.48884 17.83065 1121 ft 149 kts 169°
2026-04-22 18:10 48.47895 17.83224 1218 ft 140 kts 169°
2026-04-22 18:11 48.46905 17.83130 987 ft 155 kts 188°
2026-04-22 18:11 48.45880 17.82812 1031 ft 134 kts 191°
2026-04-22 18:11 48.45016 17.82309 857 ft 146 kts 226°
2026-04-22 18:11 48.44259 17.81226 695 ft 145 kts 216°
2026-04-22 18:12 48.43343 17.81290 667 ft 137 kts 149°
2026-04-22 18:12 48.42448 17.81821 680 ft 136 kts 158°
2026-04-22 18:12 48.41831 17.82018 713 ft 133 kts 167°
2026-04-22 18:12 48.40912 17.81929 890 ft 80 kts 180°
2026-04-22 18:13 48.40244 17.81867 859 ft 107 kts 181°
2026-04-22 18:13 48.39539 17.81790 774 ft 115 kts 181°
2026-04-22 18:13 48.38721 17.82177 675 ft 130 kts 138°
2026-04-22 18:13 48.38029 17.83066 760 ft 126 kts 133°
2026-04-22 18:14 48.37383 17.83834 736 ft 109 kts 141°
2026-04-22 18:14 48.36776 17.84357 751 ft 100 kts 143°
2026-04-22 18:14 48.36179 17.84944 848 ft 111 kts 126°
2026-04-22 18:14 48.35725 17.85797 651 ft 98 kts 122°
2026-04-22 18:15 48.35285 17.86479 560 ft 84 kts 137°
2026-04-22 18:15 48.34835 17.86890 556 ft 75 kts 140°
2026-04-22 18:15 48.34432 17.87461 640 ft 92 kts 106°
2026-04-22 18:15 48.34149 17.88400 722 ft 105 kts 105°
2026-04-22 18:16 48.33792 17.89437 753 ft 119 kts 110°
2026-04-22 18:16 48.33387 17.90599 721 ft 126 kts 108°
2026-04-22 18:16 48.33054 17.91804 712 ft 128 kts 104°
2026-04-22 18:16 48.32713 17.93020 778 ft 125 kts 105°
2026-04-22 18:17 48.32272 17.94180 798 ft 128 kts 115°
2026-04-22 18:17 48.31708 17.95295 582 ft 145 kts 123°
2026-04-22 18:17 48.31058 17.96389 594 ft 137 kts 128°
2026-04-22 18:17 48.30377 17.97352 622 ft 134 kts 134°
2026-04-22 18:18 48.29662 17.98202 675 ft 134 kts 135°
2026-04-22 18:18 48.29236 17.99298 836 ft 116 kts 92°
2026-04-22 18:18 48.29131 18.00517 883 ft 118 kts 88°
2026-04-22 18:18 48.29033 18.01732 961 ft 118 kts 88°
2026-04-22 18:19 48.28897 18.02978 952 ft 122 kts 90°
2026-04-22 18:19 48.28775 18.04256 951 ft 122 kts 87°
2026-04-22 18:19 48.28648 18.05500 1022 ft 119 kts 90°
2026-04-22 18:19 48.28543 18.06770 955 ft 128 kts 85°
2026-04-22 18:20 48.28471 18.08103 920 ft 128 kts 85°
2026-04-22 18:20 48.28377 18.09442 792 ft 118 kts 89°
2026-04-22 18:20 48.28424 18.10484 783 ft 88 kts 69°
2026-04-22 18:20 48.28550 18.11202 746 ft 57 kts 57°
2026-04-22 18:21 48.28678 18.11814 682 ft 68 kts 64°
2026-04-22 18:21 48.28521 18.12513 528 ft 70 kts 117°
2026-04-22 18:21 48.28171 18.12974 429 ft 61 kts 137°
2026-04-22 18:21 48.27897 18.13265 426 ft 32 kts 143°
2026-04-22 18:22 48.27871 18.13407 426 ft 7 kts 63°
2026-04-22 18:22 48.27884 18.13480 426 ft 9 kts 113°
2026-04-22 18:22 48.27890 18.13490 426 ft 0 kts 342°